Terminal Aerodrome Forecast
Issued by NWS Denver/Boulder, CO

Home | Current Version | Previous Version | Text Only | Print | Product List | Glossary On
Versions: 1 2 3 4 5 6 7 8 9 10 11 12 13 14 15 16 17 18 19 20 21 22 23 24 25 26 27 28 29 30 31 32 33 34 35 36 37 38 39 40 41 42 43 44 45 46 47
000
FTUS45 KBOU 301246 AAA
TAFDEN
TAF AMD
KDEN 301246Z 3013/0118 35012KT 5SM -SN BR BKN005 OVC008
      TEMPO 3013/3017 2SM -SN BR OVC004
     FM301700 36013KT P6SM VCSH SCT012 OVC025
      TEMPO 3018/3022 4SM -SNRA BKN012
     FM302200 36015G25KT P6SM VCSH SCT010 OVC020
      TEMPO 3022/0102 2SM -SN BR FEW007 OVC010
     FM010600 34008KT P6SM SCT004 OVC010 PROB30 0106/0112 3SM -SN BR
      BKN007
     FM011400 05005KT P6SM VCSH SCT010 OVC025=

USA.gov is the U.S. government's official web portal to all federal, state and local government web resources and services.